Terminal Aerodrome Forecast
Issued by NWS

Home | Current Version | Previous Version | Text Only | Print | Product List | Glossary On
Versions: 1 2 3 4 5 6 7 8 9 10 11 12 13 14 15 16 17 18 19 20 21 22 23 24 25 26 27 28 29 30 31
000
FTUS45 KGJT 180134 AAA
TAFASE
TAF AMD
KASE 180134Z 1802/1824 35003KT 1 1/2SM -SN BR SCT003 OVC012
      TEMPO 1802/1806 3SM -SN BR BKN012 OVC030
     FM180600 00000KT 2SM BR VCSH FEW003 OVC012
     FM181900 35003KT P6SM SCT015 BKN060=

USA.gov is the U.S. government's official web portal to all federal, state and local government web resources and services.